Time;durP1;ratioP1;P1;durP2;ratioP2;P2;SDS_P1;SDS_P2;PMS_P1;PMS_P2;Temp;Humidity;BMP_temperature;BMP_pressure;BME280_temperature;BME280_humidity;BME280_pressure;Samples;Min_cycle;Max_cycle;Signal;HPM_P1;HPM_P2
2023/09/03 00:00:42;;;;;;;9.77;8.02;;;;;;;22.21;50.98;95146.25;4189979;28;20052;-75
2023/09/03 00:02:43;;;;;;;11.10;8.23;;;;;;;22.20;50.72;95149.94;4165911;28;20101;-74
2023/09/03 00:04:45;;;;;;;8.65;7.47;;;;;;;22.16;51.04;95146.94;4183973;28;20131;-75
2023/09/03 00:06:47;;;;;;;8.90;7.60;;;;;;;22.15;51.13;95145.28;4188530;28;20460;-77
2023/09/03 00:08:49;;;;;;;9.35;7.60;;;;;;;22.12;50.78;95145.72;4179508;28;20055;-75
2023/09/03 00:10:52;;;;;;;11.60;8.32;;;;;;;22.08;51.27;95147.19;4188405;28;20048;-75
2023/09/03 00:12:54;;;;;;;12.02;8.00;;;;;;;21.98;51.79;95150.34;4173315;28;20138;-75
2023/09/03 00:14:56;;;;;;;9.52;7.70;;;;;;;21.92;51.84;95151.25;4190044;28;20052;-74
2023/09/03 00:16:57;;;;;;;13.07;8.27;;;;;;;21.81;51.93;95151.94;4184028;28;20040;-74
2023/09/03 00:18:59;;;;;;;8.90;8.00;;;;;;;21.67;52.27;95154.72;4175781;28;20048;-73
2023/09/03 00:21:05;;;;;;;9.82;8.05;;;;;;;21.54;52.65;95152.16;4193114;28;20059;-73
2023/09/03 00:23:08;;;;;;;9.15;8.25;;;;;;;21.47;53.11;95156.72;4156616;28;20065;-73
2023/09/03 00:25:10;;;;;;;9.32;8.32;;;;;;;21.44;53.17;95165.94;4176816;28;20563;-74
2023/09/03 00:27:12;;;;;;;9.07;7.93;;;;;;;21.50;53.21;95160.81;4192328;28;20045;-77
2023/09/03 00:29:14;;;;;;;12.10;10.05;;;;;;;21.53;53.15;95171.88;4170188;28;20061;-75
2023/09/03 00:31:15;;;;;;;16.17;13.82;;;;;;;21.59;53.06;95178.97;4191219;28;20045;-75
2023/09/03 00:33:17;;;;;;;10.50;9.48;;;;;;;21.66;53.15;95171.75;4163372;28;20045;-74
2023/09/03 00:35:20;;;;;;;10.68;9.55;;;;;;;21.70;53.00;95174.78;4194419;28;20049;-75
2023/09/03 00:37:22;;;;;;;9.13;8.23;;;;;;;21.72;53.10;95183.41;4194105;28;20040;-75
2023/09/03 00:39:24;;;;;;;9.75;8.73;;;;;;;21.73;53.08;95185.03;4190399;28;20124;-75
2023/09/03 00:41:25;;;;;;;11.02;8.57;;;;;;;21.73;53.05;95177.03;4199375;28;20398;-75
2023/09/03 00:43:27;;;;;;;9.18;8.25;;;;;;;21.77;53.04;95174.75;4203711;28;20092;-72
2023/09/03 00:45:29;;;;;;;9.85;8.85;;;;;;;21.71;53.46;95176.44;4209468;28;20112;-74
2023/09/03 00:47:33;;;;;;;11.63;8.50;;;;;;;21.70;53.08;95169.47;4205795;28;20293;-72
2023/09/03 00:49:40;;;;;;;10.23;9.23;;;;;;;21.67;53.56;95165.38;4161137;28;20045;-72
2023/09/03 00:51:42;;;;;;;10.13;8.55;;;;;;;21.68;53.35;95155.53;4179856;28;20519;-74
2023/09/03 00:53:48;;;;;;;18.52;9.75;;;;;;;21.64;53.65;95157.84;4193458;28;20049;-75
2023/09/03 00:55:50;;;;;;;9.38;8.48;;;;;;;21.63;53.72;95150.84;4181352;28;20053;-74
2023/09/03 00:57:52;;;;;;;10.38;9.07;;;;;;;21.57;53.71;95151.72;4177588;28;20519;-74
2023/09/03 00:59:56;;;;;;;12.65;8.48;;;;;;;21.53;53.72;95149.69;4176119;28;20045;-74
2023/09/03 01:01:58;;;;;;;11.70;9.60;;;;;;;21.53;54.04;95152.38;4178826;28;20167;-74
2023/09/03 01:04:00;;;;;;;10.38;9.27;;;;;;;21.52;53.95;95148.09;4191776;28;20049;-74
2023/09/03 01:06:04;;;;;;;11.73;8.52;;;;;;;21.52;54.11;95145.41;4178515;28;20049;-73
2023/09/03 01:08:06;;;;;;;10.10;9.10;;;;;;;21.48;53.99;95139.69;4178970;28;20147;-74
2023/09/03 01:10:07;;;;;;;9.40;8.48;;;;;;;21.44;54.11;95147.28;4156387;28;20050;-75
2023/09/03 01:12:24;;;;;;;12.35;8.68;;;;;;;21.48;54.02;95142.34;4189499;28;20055;-74
2023/09/03 01:14:36;;;;;;;11.65;8.98;;;;;;;21.49;54.35;95146.66;4177828;28;20132;-74
2023/09/03 01:16:50;;;;;;;10.00;9.00;;;;;;;21.53;53.97;95142.53;4199721;28;20044;-74
2023/09/03 01:18:52;;;;;;;10.15;9.05;;;;;;;21.56;53.80;95142.09;4185380;28;20057;-75
2023/09/03 01:21:21;;;;;;;9.77;8.77;;;;;;;21.59;53.77;95144.31;4179845;28;20055;-75
2023/09/03 01:23:29;;;;;;;11.55;8.68;;;;;;;21.53;54.00;95145.22;4172299;28;20052;-74
2023/09/03 01:25:41;;;;;;;10.23;9.15;;;;;;;21.32;54.12;95146.34;4173528;28;20045;-74
2023/09/03 01:27:51;;;;;;;12.80;9.10;;;;;;;21.23;54.47;95156.44;4187245;28;20052;-74
2023/09/03 01:29:53;;;;;;;11.10;9.95;;;;;;;21.11;55.06;95157.31;4188268;28;20052;-72
2023/09/03 01:31:56;;;;;;;10.52;9.43;;;;;;;21.05;55.35;95153.66;4193244;28;20418;-74
2023/09/03 01:34:03;;;;;;;16.27;8.88;;;;;;;21.04;55.38;95155.50;4174584;28;20042;-74
2023/09/03 01:36:06;;;;;;;10.10;9.10;;;;;;;21.11;55.25;95152.81;4173059;28;20049;-73
2023/09/03 01:38:10;;;;;;;10.65;9.20;;;;;;;21.13;55.03;95156.09;4177821;28;20051;-76
2023/09/03 01:40:11;;;;;;;11.98;9.25;;;;;;;21.16;54.98;95152.97;4191152;28;20116;-74
2023/09/03 01:42:13;;;;;;;11.63;9.25;;;;;;;21.19;55.07;95159.75;4185889;28;20140;-75
2023/09/03 01:44:15;;;;;;;10.13;9.13;;;;;;;21.22;55.09;95149.47;4193401;28;20136;-75
2023/09/03 01:46:23;;;;;;;9.95;8.88;;;;;;;21.23;54.75;95148.44;4194065;28;20438;-72
2023/09/03 01:48:40;;;;;;;10.70;9.45;;;;;;;21.24;54.68;95147.41;4174681;28;20059;-73
2023/09/03 01:50:52;;;;;;;15.18;9.95;;;;;;;21.25;54.53;95154.38;4195745;28;20059;-74
2023/09/03 01:53:12;;;;;;;9.80;8.80;;;;;;;21.25;54.57;95149.06;4156374;28;20153;-73
2023/09/03 01:55:14;;;;;;;10.40;9.30;;;;;;;21.22;54.58;95154.78;4187198;28;20091;-73
2023/09/03 01:57:27;;;;;;;9.93;9.02;;;;;;;21.18;54.59;95153.59;4166531;28;20045;-76
2023/09/03 01:59:35;;;;;;;9.63;8.57;;;;;;;21.17;54.33;95156.47;4168244;28;20096;-75
2023/09/03 02:01:38;;;;;;;9.52;8.63;;;;;;;21.12;54.22;95158.94;4163174;28;20069;-73
2023/09/03 02:03:41;;;;;;;11.70;8.50;;;;;;;21.10;54.28;95153.00;4165047;28;20045;-75
2023/09/03 02:05:43;;;;;;;10.93;8.90;;;;;;;21.07;54.33;95149.75;4191585;28;20052;-74
2023/09/03 02:07:45;;;;;;;9.75;8.77;;;;;;;21.04;54.47;95152.03;4177906;28;20053;-74
2023/09/03 02:09:46;;;;;;;13.23;8.63;;;;;;;21.02;54.44;95148.78;4184507;28;20476;-75
2023/09/03 02:11:49;;;;;;;10.30;9.23;;;;;;;20.96;54.79;95145.09;4185344;28;20114;-74
2023/09/03 02:13:51;;;;;;;10.50;9.07;;;;;;;20.92;54.75;95148.41;4178026;28;20626;-74
2023/09/03 02:15:53;;;;;;;10.40;9.40;;;;;;;20.86;54.85;95153.56;4191744;28;20063;-73
2023/09/03 02:17:55;;;;;;;11.73;8.93;;;;;;;20.84;55.22;95150.28;4185498;28;20045;-75
2023/09/03 02:19:57;;;;;;;10.52;9.32;;;;;;;20.82;55.24;95147.03;4183414;28;20053;-76
2023/09/03 02:21:59;;;;;;;10.55;9.55;;;;;;;20.79;55.42;95147.44;4195424;28;20435;-76
2023/09/03 02:24:01;;;;;;;12.60;9.45;;;;;;;20.81;55.17;95147.22;4195773;28;20422;-74
2023/09/03 02:26:03;;;;;;;11.05;9.52;;;;;;;20.77;55.42;95141.50;4184934;28;20057;-76
2023/09/03 02:28:07;;;;;;;13.73;9.20;;;;;;;20.76;55.69;95141.72;4178373;28;20049;-75
2023/09/03 02:30:09;;;;;;;11.27;9.75;;;;;;;20.77;55.61;95151.34;4165799;28;20540;-74
2023/09/03 02:32:10;;;;;;;11.02;9.80;;;;;;;20.73;55.31;95140.28;4188325;28;20048;-75
2023/09/03 02:34:13;;;;;;;11.82;8.80;;;;;;;20.70;55.71;95148.69;4168281;28;20123;-74
2023/09/03 02:36:15;;;;;;;11.95;9.98;;;;;;;20.71;55.43;95144.19;4184987;28;20163;-75
2023/09/03 02:38:18;;;;;;;13.80;9.75;;;;;;;20.72;55.70;95145.84;4195477;28;20051;-76
2023/09/03 02:40:20;;;;;;;11.38;9.63;;;;;;;20.73;55.58;95142.94;4173056;28;20045;-76
2023/09/03 02:42:24;;;;;;;12.68;9.82;;;;;;;20.73;55.48;95142.94;4185684;28;20076;-75
2023/09/03 02:44:25;;;;;;;12.02;8.63;;;;;;;20.74;55.66;95141.94;4183533;28;20060;-76
2023/09/03 02:46:28;;;;;;;14.25;9.95;;;;;;;20.73;55.34;95145.59;4185492;28;20456;-75
2023/09/03 02:48:30;;;;;;;12.10;10.13;;;;;;;20.71;55.44;95152.97;4184512;28;20484;-74
2023/09/03 02:50:34;;;;;;;14.25;9.43;;;;;;;20.70;55.31;95156.69;4174881;28;20385;-73
2023/09/03 02:52:36;;;;;;;10.25;9.07;;;;;;;20.69;55.31;95149.72;4184098;28;20404;-73
2023/09/03 02:54:39;;;;;;;13.70;9.15;;;;;;;20.65;55.55;95159.19;4191319;28;20048;-74
2023/09/03 02:56:41;;;;;;;14.07;9.27;;;;;;;20.61;55.78;95153.44;4196104;28;20120;-74
2023/09/03 02:58:46;;;;;;;11.18;9.48;;;;;;;20.49;56.05;95159.59;4202329;28;20059;-74
2023/09/03 03:00:48;;;;;;;10.27;9.02;;;;;;;20.23;56.43;95148.00;4195077;28;20051;-73
2023/09/03 03:02:50;;;;;;;11.98;9.32;;;;;;;20.18;56.70;95153.94;4184547;28;20503;-74
2023/09/03 03:04:52;;;;;;;17.52;9.55;;;;;;;20.17;56.86;95156.81;4198517;28;20102;-77
2023/09/03 03:06:54;;;;;;;9.80;8.70;;;;;;;20.23;56.84;95150.66;4189678;28;20126;-74
2023/09/03 03:08:55;;;;;;;10.38;9.30;;;;;;;20.27;56.59;95153.72;4192039;28;20422;-75
2023/09/03 03:11:15;;;;;;;10.88;9.27;;;;;;;20.13;56.62;95148.41;4198886;28;20051;-73
2023/09/03 03:13:17;;;;;;;14.45;10.20;;;;;;;19.92;57.29;95152.13;4185779;28;20076;-75
2023/09/03 03:15:18;;;;;;;10.45;9.15;;;;;;;19.69;58.09;95143.72;4192073;28;20423;-74
2023/09/03 03:17:20;;;;;;;10.65;9.55;;;;;;;19.67;58.15;95143.94;4175830;28;20582;-71
2023/09/03 03:19:22;;;;;;;12.50;9.65;;;;;;;19.62;58.22;95138.41;4199187;28;20419;-76
2023/09/03 03:21:23;;;;;;;12.07;9.68;;;;;;;19.68;58.14;95140.28;4198989;28;20060;-76
2023/09/03 03:23:25;;;;;;;10.50;9.50;;;;;;;19.75;58.09;95134.97;4198827;28;20052;-73
2023/09/03 03:25:28;;;;;;;12.05;9.70;;;;;;;19.82;58.25;95135.78;4201787;28;20094;-72
2023/09/03 03:27:29;;;;;;;11.20;10.00;;;;;;;19.86;58.26;95134.34;4201415;28;20052;-75
2023/09/03 03:29:32;;;;;;;14.02;10.30;;;;;;;19.89;57.94;95138.44;4184238;28;20131;-74
2023/09/03 03:31:34;;;;;;;12.90;9.65;;;;;;;19.91;57.92;95133.72;4196000;28;20056;-74
2023/09/03 03:33:41;;;;;;;14.18;9.35;;;;;;;19.93;57.79;95135.16;4199586;28;20100;-73
2023/09/03 03:35:42;;;;;;;13.82;9.98;;;;;;;19.96;57.63;95128.59;4192148;28;20056;-73
2023/09/03 03:37:47;;;;;;;10.13;9.13;;;;;;;19.95;57.72;95138.41;4193376;28;20041;-76
2023/09/03 03:39:50;;;;;;;15.00;10.10;;;;;;;19.89;57.93;95133.13;4160623;28;20146;-74
2023/09/03 03:41:52;;;;;;;11.55;9.55;;;;;;;19.90;58.06;95138.22;4174494;28;20049;-76
2023/09/03 03:43:54;;;;;;;11.00;9.77;;;;;;;19.84;57.85;95147.84;4193796;28;20063;-75
2023/09/03 03:45:57;;;;;;;13.50;9.73;;;;;;;19.68;57.89;95147.41;4175858;28;20499;-74
2023/09/03 03:47:58;;;;;;;12.95;9.65;;;;;;;19.54;58.68;95146.59;4171543;28;20200;-74
2023/09/03 03:50:00;;;;;;;11.05;9.85;;;;;;;19.48;59.04;95148.22;4166925;28;20133;-73
2023/09/03 03:52:02;;;;;;;13.88;10.77;;;;;;;19.50;58.96;95151.47;4188674;28;20044;-75
2023/09/03 03:54:05;;;;;;;12.55;10.13;;;;;;;19.48;58.97;95148.22;4191478;28;20565;-75
2023/09/03 03:56:09;;;;;;;11.05;9.95;;;;;;;19.50;59.05;95142.69;4185725;28;20051;-75
2023/09/03 03:58:11;;;;;;;11.68;10.48;;;;;;;19.52;58.92;95146.78;4174036;28;20179;-75
2023/09/03 04:00:13;;;;;;;11.25;10.07;;;;;;;19.53;59.05;95145.78;4185805;28;20059;-75
2023/09/03 04:02:15;;;;;;;12.63;10.40;;;;;;;19.44;59.40;95150.47;4194761;28;20132;-77
2023/09/03 04:04:19;;;;;;;;;;;;;;;19.49;59.39;95147.22;4192586;28;20147;-73
2023/09/03 04:06:21;;;;;;;11.20;10.07;;;;;;;19.58;58.78;95143.31;4193264;28;19977;-75
2023/09/03 04:08:23;;;;;;;10.75;9.75;;;;;;;19.63;58.97;95151.47;4192684;28;20131;-74
2023/09/03 04:10:25;;;;;;;12.18;10.93;;;;;;;19.71;58.53;95157.66;4194071;28;20056;-75
2023/09/03 04:12:26;;;;;;;12.15;10.55;;;;;;;19.74;58.44;95158.06;4193453;28;20059;-75
2023/09/03 04:14:28;;;;;;;11.85;10.05;;;;;;;19.81;58.18;95158.06;4187857;28;20090;-75
2023/09/03 04:16:30;;;;;;;11.65;10.20;;;;;;;19.87;58.13;95157.25;4180146;28;20107;-74
2023/09/03 04:18:32;;;;;;;12.18;10.68;;;;;;;19.95;58.01;95159.69;4178254;28;20497;-74
2023/09/03 04:20:33;;;;;;;13.05;10.27;;;;;;;20.01;57.98;95155.41;4172272;28;20120;-77
2023/09/03 04:22:37;;;;;;;12.57;9.75;;;;;;;20.05;57.78;95146.00;4189404;28;20057;-75
2023/09/03 04:24:39;;;;;;;11.07;9.98;;;;;;;20.07;57.77;95146.59;4181062;28;20048;-75
2023/09/03 04:26:42;;;;;;;10.88;9.43;;;;;;;20.13;57.41;95144.94;4194753;28;20442;-76
2023/09/03 04:28:43;;;;;;;12.00;10.23;;;;;;;20.15;57.38;95151.69;4189182;28;20049;-74
2023/09/03 04:30:46;;;;;;;11.10;9.77;;;;;;;20.18;57.41;95150.47;4198402;28;20361;-75
2023/09/03 04:32:48;;;;;;;12.02;10.82;;;;;;;20.20;57.38;95151.09;4197123;28;20071;-77
2023/09/03 04:34:52;;;;;;;11.57;10.32;;;;;;;20.26;57.39;95150.22;4193195;28;20136;-76
2023/09/03 04:36:54;;;;;;;11.52;10.32;;;;;;;20.31;57.11;95150.44;4176870;28;20095;-76
2023/09/03 04:38:55;;;;;;;11.10;10.00;;;;;;;20.38;56.97;95148.56;4191877;28;20051;-75
2023/09/03 04:41:03;;;;;;;14.25;10.95;;;;;;;20.43;56.82;95146.13;4192464;28;20054;-76
2023/09/03 04:43:05;;;;;;;14.07;10.88;;;;;;;20.46;56.76;95143.03;4168957;28;20053;-77
2023/09/03 04:45:07;;;;;;;11.38;9.90;;;;;;;20.51;56.49;95137.06;4185213;28;20128;-75
2023/09/03 04:47:09;;;;;;;11.77;10.10;;;;;;;20.57;56.14;95135.41;4188147;28;20112;-75
2023/09/03 04:49:10;;;;;;;14.20;11.00;;;;;;;20.61;56.24;95134.00;4186914;28;20128;-75
2023/09/03 04:51:13;;;;;;;11.73;10.60;;;;;;;20.63;56.12;95135.41;4184961;28;20161;-75
2023/09/03 04:53:15;;;;;;;11.63;10.40;;;;;;;20.56;56.59;95131.09;4189660;28;20060;-76
2023/09/03 04:55:17;;;;;;;16.15;11.38;;;;;;;20.49;56.40;95136.47;4188066;28;20102;-75
2023/09/03 04:57:18;;;;;;;18.02;11.18;;;;;;;20.41;56.59;95132.19;4183430;28;20079;-74
2023/09/03 04:59:20;;;;;;;12.15;11.05;;;;;;;20.30;56.84;95132.00;4168291;28;20493;-76
2023/09/03 05:01:22;;;;;;;14.60;10.57;;;;;;;20.12;57.17;95128.16;4187161;28;20067;-74
2023/09/03 05:03:24;;;;;;;11.27;10.18;;;;;;;19.98;57.68;95127.38;4192862;28;20045;-74
2023/09/03 05:05:25;;;;;;;12.20;10.68;;;;;;;19.98;57.91;95123.88;4175839;28;20049;-75
2023/09/03 05:07:28;;;;;;;14.40;10.30;;;;;;;19.83;58.51;95124.94;4174970;28;20335;-76
2023/09/03 05:09:31;;;;;;;13.85;10.27;;;;;;;19.80;58.32;95119.22;4178472;28;20081;-75
2023/09/03 05:11:32;;;;;;;13.07;11.05;;;;;;;19.78;58.54;95122.06;4190661;28;20629;-77
2023/09/03 05:13:35;;;;;;;12.30;11.02;;;;;;;19.71;58.56;95125.78;4191155;28;20056;-75
2023/09/03 05:15:37;;;;;;;12.23;10.82;;;;;;;19.89;58.43;95123.28;4192461;28;20488;-77
2023/09/03 05:17:39;;;;;;;14.05;11.23;;;;;;;20.02;57.86;95120.59;4189027;28;20522;-77
2023/09/03 05:19:41;;;;;;;13.50;10.95;;;;;;;20.08;57.90;95118.97;4186497;28;20060;-75
2023/09/03 05:21:43;;;;;;;13.88;10.82;;;;;;;20.12;57.54;95120.19;4186701;28;20048;-77
2023/09/03 05:23:45;;;;;;;14.95;10.85;;;;;;;19.95;57.88;95119.00;4178400;28;20053;-77
2023/09/03 05:25:46;;;;;;;12.13;10.75;;;;;;;20.02;58.03;95117.94;4198351;28;20110;-76
2023/09/03 05:27:48;;;;;;;15.23;11.65;;;;;;;20.08;57.98;95120.81;4187735;28;20045;-74
2023/09/03 05:29:50;;;;;;;11.15;10.05;;;;;;;20.27;57.42;95124.47;4183427;28;20080;-76
2023/09/03 05:31:52;;;;;;;13.77;10.85;;;;;;;20.32;56.88;95128.13;4184449;28;20052;-77
2023/09/03 05:33:54;;;;;;;15.27;10.85;;;;;;;20.31;57.20;95123.84;4196647;28;20040;-77
2023/09/03 05:35:55;;;;;;;13.80;11.70;;;;;;;20.41;57.03;95124.22;4195852;28;20160;-75
2023/09/03 05:37:57;;;;;;;13.85;10.95;;;;;;;20.56;56.52;95117.81;4194288;28;20052;-76
2023/09/03 05:39:59;;;;;;;14.15;10.82;;;;;;;20.77;55.98;95124.72;4177853;28;20059;-75
2023/09/03 05:42:01;;;;;;;12.88;11.15;;;;;;;20.89;55.63;95114.19;4191454;28;20040;-76
2023/09/03 05:44:06;;;;;;;13.38;10.80;;;;;;;20.96;55.25;95125.66;4194370;28;20048;-75
2023/09/03 05:46:07;;;;;;;13.43;11.18;;;;;;;20.73;55.78;95123.50;4203275;28;20113;-75
2023/09/03 05:48:09;;;;;;;13.25;11.95;;;;;;;20.33;57.01;95126.28;4175852;28;20052;-77
2023/09/03 05:50:11;;;;;;;15.95;11.60;;;;;;;20.01;57.67;95137.59;4194480;28;20052;-75
2023/09/03 05:52:13;;;;;;;14.40;11.05;;;;;;;20.13;57.88;95134.31;4194629;28;20045;-74
2023/09/03 05:54:15;;;;;;;13.90;10.75;;;;;;;20.07;57.92;95133.31;4188608;28;20064;-74
2023/09/03 05:56:16;;;;;;;12.50;11.23;;;;;;;19.84;58.76;95141.72;4181820;28;20546;-75
2023/09/03 05:58:18;;;;;;;14.05;11.35;;;;;;;19.88;58.68;95140.28;4192900;28;20040;-77
2023/09/03 06:00:21;;;;;;;15.23;11.25;;;;;;;20.01;58.30;95134.13;4191388;28;20053;-77
2023/09/03 06:02:22;;;;;;;12.45;11.25;;;;;;;20.10;58.16;95135.53;4189253;28;20052;-75
2023/09/03 06:04:24;;;;;;;15.20;10.65;;;;;;;20.24;57.86;95138.97;4186369;28;20377;-75
2023/09/03 06:06:26;;;;;;;12.02;10.82;;;;;;;20.15;58.07;95142.88;4174536;28;20052;-76
2023/09/03 06:08:28;;;;;;;17.80;10.88;;;;;;;20.31;57.80;95133.66;4195339;28;20040;-76
2023/09/03 06:10:29;;;;;;;18.80;10.65;;;;;;;20.59;57.40;95144.03;4188454;28;20137;-74
2023/09/03 06:12:31;;;;;;;12.70;11.32;;;;;;;20.85;56.32;95135.94;4186906;28;20491;-76
2023/09/03 06:14:33;;;;;;;13.45;11.60;;;;;;;21.03;56.00;95140.53;4193649;28;20048;-76
2023/09/03 06:16:35;;;;;;;13.15;10.55;;;;;;;21.24;55.38;95139.41;4185672;28;20044;-74
2023/09/03 06:18:36;;;;;;;12.38;10.45;;;;;;;21.38;54.78;95150.81;4191838;28;20055;-75
2023/09/03 06:20:38;;;;;;;12.00;10.70;;;;;;;21.55;54.36;95140.44;4191382;28;20478;-75
2023/09/03 06:22:40;;;;;;;11.68;10.57;;;;;;;21.56;53.99;95143.94;4168652;28;20041;-75
2023/09/03 06:24:42;;;;;;;12.68;11.40;;;;;;;21.37;54.59;95151.03;4192006;28;20048;-74
2023/09/03 06:26:43;;;;;;;18.77;10.43;;;;;;;21.42;54.54;95145.88;4195520;28;20051;-77
2023/09/03 06:28:46;;;;;;;13.93;11.20;;;;;;;21.38;54.42;95144.63;4189897;28;20137;-76
2023/09/03 06:30:48;;;;;;;17.40;11.07;;;;;;;21.27;54.69;95147.00;4192778;28;20044;-75
2023/09/03 06:32:49;;;;;;;12.50;10.70;;;;;;;21.22;54.85;95149.47;4192611;28;20049;-75
2023/09/03 06:34:52;;;;;;;13.90;10.38;;;;;;;21.19;55.17;95155.22;4198679;28;20094;-76
2023/09/03 06:36:53;;;;;;;14.13;11.15;;;;;;;21.37;54.78;95156.34;4191891;28;20059;-76
2023/09/03 06:38:55;;;;;;;11.95;10.65;;;;;;;21.65;54.17;95159.44;4173320;28;20064;-76
2023/09/03 06:40:57;;;;;;;12.85;9.32;;;;;;;21.72;53.77;95154.06;4193990;28;20045;-76
2023/09/03 06:42:59;;;;;;;15.52;9.88;;;;;;;21.91;53.55;95156.78;4176345;28;20534;-76
2023/09/03 06:45:00;;;;;;;16.95;10.40;;;;;;;22.08;52.89;95145.34;4186770;28;20044;-76
2023/09/03 06:47:02;;;;;;;14.43;9.82;;;;;;;22.07;53.12;95148.25;4190628;28;20048;-75
2023/09/03 06:49:05;;;;;;;13.93;10.38;;;;;;;22.22;52.47;95148.75;4194935;28;20040;-76
2023/09/03 06:51:07;;;;;;;12.93;9.95;;;;;;;22.10;52.53;95150.47;4192534;28;20045;-75
2023/09/03 06:53:08;;;;;;;11.13;10.00;;;;;;;22.17;52.49;95147.72;4195850;28;20076;-77
2023/09/03 06:55:10;;;;;;;14.52;10.43;;;;;;;22.37;52.20;95159.06;4177044;28;20052;-75
2023/09/03 06:57:14;;;;;;;17.98;10.32;;;;;;;22.26;52.65;95154.44;4188795;28;20048;-76
2023/09/03 06:59:29;;;;;;;17.42;9.75;;;;;;;22.41;52.10;95152.25;4180301;28;20095;-74
2023/09/03 07:01:35;;;;;;;10.73;9.60;;;;;;;22.45;51.64;95155.28;4192412;28;20087;-76
2023/09/03 07:03:37;;;;;;;11.60;9.13;;;;;;;22.29;52.12;95152.16;4187182;28;20050;-76
2023/09/03 07:05:39;;;;;;;14.38;10.10;;;;;;;22.22;52.23;95154.09;4187596;28;20072;-76
2023/09/03 07:07:41;;;;;;;13.95;9.50;;;;;;;22.26;51.82;95154.44;4165569;28;20053;-75
2023/09/03 07:09:43;;;;;;;13.48;10.07;;;;;;;22.41;51.49;95146.91;4172551;28;20052;-74
2023/09/03 07:11:45;;;;;;;10.80;9.20;;;;;;;22.72;51.14;95152.31;4177546;28;20087;-75
2023/09/03 07:13:47;;;;;;;13.25;8.95;;;;;;;23.01;50.46;95151.56;4184333;28;20048;-76
2023/09/03 07:15:48;;;;;;;14.63;10.45;;;;;;;23.09;49.89;95153.09;4191293;28;20048;-74
2023/09/03 07:17:50;;;;;;;14.18;8.75;;;;;;;22.88;50.34;95155.16;4174979;28;20108;-75
2023/09/03 07:19:55;;;;;;;10.50;9.23;;;;;;;22.99;49.68;95158.13;4191725;28;20080;-75
2023/09/03 07:21:57;;;;;;;10.82;8.95;;;;;;;23.12;49.33;95154.50;4193227;28;20103;-76
2023/09/03 07:23:58;;;;;;;10.48;8.85;;;;;;;23.19;49.67;95157.91;4192288;28;20135;-78
2023/09/03 07:26:08;;;;;;;11.75;9.85;;;;;;;23.30;49.65;95149.94;4186810;28;20083;-76
2023/09/03 07:28:09;;;;;;;10.23;9.23;;;;;;;23.43;49.01;95148.13;4192508;28;20054;-77
2023/09/03 07:30:11;;;;;;;12.48;9.02;;;;;;;23.55;48.63;95148.94;4174960;28;20048;-76
2023/09/03 07:32:14;;;;;;;10.48;9.35;;;;;;;23.76;48.48;95149.50;4176140;28;20064;-75
2023/09/03 07:34:16;;;;;;;11.15;8.48;;;;;;;23.95;48.17;95147.53;4178767;28;20057;-78
2023/09/03 07:36:19;;;;;;;11.38;8.90;;;;;;;24.09;47.74;95152.44;4177393;28;20049;-77
2023/09/03 07:38:21;;;;;;;11.48;9.15;;;;;;;24.14;47.75;95156.28;4191545;28;20052;-74
2023/09/03 07:40:24;;;;;;;10.60;8.55;;;;;;;24.19;47.77;95153.72;4194097;28;20091;-77
2023/09/03 07:42:26;;;;;;;13.20;8.93;;;;;;;24.32;47.49;95148.13;4191122;28;20044;-76
2023/09/03 07:44:29;;;;;;;10.45;8.82;;;;;;;24.49;46.74;95151.72;4192365;28;20404;-75
2023/09/03 07:46:31;;;;;;;10.40;8.87;;;;;;;24.66;46.38;95153.69;4193413;28;20055;-76
2023/09/03 07:48:34;;;;;;;16.27;9.77;;;;;;;24.80;46.41;95147.03;4191841;28;20277;-79
2023/09/03 07:50:38;;;;;;;10.95;8.68;;;;;;;24.85;45.61;95152.50;4175264;28;20045;-79
2023/09/03 07:52:40;;;;;;;12.30;9.05;;;;;;;24.75;45.83;95148.78;4195179;28;20127;-75
2023/09/03 07:54:42;;;;;;;9.38;8.45;;;;;;;24.56;46.08;95150.78;4191289;28;20490;-75
2023/09/03 07:56:43;;;;;;;12.18;8.73;;;;;;;24.50;46.33;95145.34;4186971;28;20049;-75
2023/09/03 07:58:45;;;;;;;12.00;8.82;;;;;;;24.48;46.46;95144.75;4186384;28;20127;-76
2023/09/03 08:00:47;;;;;;;11.20;8.35;;;;;;;24.65;46.00;95152.88;4193408;28;20486;-77
2023/09/03 08:02:48;;;;;;;12.00;8.98;;;;;;;24.86;46.22;95158.66;4173401;28;20061;-75
2023/09/03 08:04:50;;;;;;;11.75;8.23;;;;;;;25.08;45.62;95153.44;4194738;28;20052;-76
2023/09/03 08:06:52;;;;;;;10.82;8.73;;;;;;;25.28;45.15;95155.75;4198923;28;20063;-75
2023/09/03 08:08:55;;;;;;;15.93;8.18;;;;;;;25.45;44.58;95156.59;4190315;28;20041;-78
2023/09/03 08:10:56;;;;;;;15.55;9.52;;;;;;;25.41;44.16;95152.78;4195354;28;20075;-76
2023/09/03 08:12:58;;;;;;;11.00;8.80;;;;;;;25.20;44.83;95150.78;4198324;28;20498;-78
2023/09/03 08:15:00;;;;;;;15.13;9.00;;;;;;;24.87;45.01;95153.06;4200461;28;20051;-75
2023/09/03 08:17:01;;;;;;;11.35;8.02;;;;;;;24.92;45.06;95155.84;4191855;28;20052;-75
2023/09/03 08:19:03;;;;;;;8.85;8.05;;;;;;;25.14;44.90;95149.81;4187957;28;20071;-77
2023/09/03 08:21:05;;;;;;;11.23;8.02;;;;;;;25.23;44.27;95145.75;4186011;28;20083;-78
2023/09/03 08:23:10;;;;;;;9.70;8.00;;;;;;;25.26;43.40;95145.25;4193664;28;20472;-74
2023/09/03 08:25:12;;;;;;;10.30;7.05;;;;;;;25.37;43.23;95138.22;4178579;28;20048;-77
2023/09/03 08:27:14;;;;;;;12.77;7.60;;;;;;;25.59;42.64;95138.31;4178751;28;20049;-75
2023/09/03 08:29:15;;;;;;;10.65;7.28;;;;;;;25.62;42.53;95134.34;4192877;28;20063;-76
2023/09/03 08:31:17;;;;;;;9.85;6.40;;;;;;;25.57;42.13;95128.91;4193336;28;20052;-76
2023/09/03 08:33:19;;;;;;;14.13;7.07;;;;;;;25.59;41.78;95135.63;4182886;28;20121;-77
2023/09/03 08:35:22;;;;;;;11.13;6.90;;;;;;;25.56;41.13;95122.72;4185998;28;20106;-77
2023/09/03 08:37:26;;;;;;;8.63;6.20;;;;;;;25.40;41.17;95129.69;4194145;28;20392;-77
2023/09/03 08:39:28;;;;;;;6.53;5.47;;;;;;;25.49;40.97;95135.47;4183819;28;20048;-75
2023/09/03 08:41:31;;;;;;;7.35;6.10;;;;;;;25.57;40.43;95124.34;4167921;28;20381;-75
2023/09/03 08:43:32;;;;;;;13.93;7.13;;;;;;;25.36;42.11;95122.34;4188705;28;20049;-77
2023/09/03 08:45:43;;;;;;;9.57;6.70;;;;;;;25.62;41.55;95115.56;4169920;28;20045;-75
2023/09/03 08:47:46;;;;;;;7.20;6.25;;;;;;;25.88;41.06;95114.97;4188436;28;20097;-76
2023/09/03 08:49:48;;;;;;;8.17;6.77;;;;;;;26.16;40.73;95110.53;4192959;28;20048;-77
2023/09/03 08:51:49;;;;;;;9.10;5.80;;;;;;;26.42;39.82;95106.31;4193820;28;20276;-75
2023/09/03 08:53:52;;;;;;;8.35;6.25;;;;;;;26.58;38.82;95101.19;4192828;28;20106;-76
2023/09/03 08:55:54;;;;;;;10.05;6.65;;;;;;;26.42;38.31;95103.66;4179739;28;20049;-76
2023/09/03 08:57:56;;;;;;;9.65;5.65;;;;;;;26.46;38.37;95104.78;4162576;28;20053;-75
2023/09/03 08:59:58;;;;;;;6.20;5.18;;;;;;;26.53;36.69;95107.28;4182648;28;20040;-75
2023/09/03 09:02:00;;;;;;;6.65;4.60;;;;;;;26.50;35.15;95105.06;4184980;28;20408;-77
2023/09/03 09:04:03;;;;;;;6.03;4.97;;;;;;;26.57;35.48;95092.31;4190658;28;20099;-77
2023/09/03 09:06:07;;;;;;;7.43;5.20;;;;;;;26.73;35.51;95087.94;4179681;28;20048;-76
2023/09/03 09:08:09;;;;;;;5.68;5.07;;;;;;;26.89;35.47;95081.66;4196087;28;20059;-75
2023/09/03 09:10:13;;;;;;;6.35;4.97;;;;;;;27.13;34.75;95076.00;4179640;28;20052;-76
2023/09/03 09:12:29;;;;;;;6.55;5.75;;;;;;;27.36;34.50;95075.72;4188147;28;20192;-77
2023/09/03 09:15:01;;;;;;;13.50;5.60;;;;;;;27.50;34.54;95077.97;4159106;28;20050;-78
2023/09/03 09:17:11;;;;;;;11.98;5.10;;;;;;;27.65;34.67;95082.69;4176857;28;20045;-75
2023/09/03 09:19:17;;;;;;;6.50;5.80;;;;;;;27.73;34.88;95083.03;4185776;28;20072;-77
2023/09/03 09:21:19;;;;;;;5.75;5.15;;;;;;;27.39;34.47;95078.97;4173789;28;20600;-75
2023/09/03 09:23:22;;;;;;;6.22;5.10;;;;;;;27.05;34.71;95079.16;4194425;28;20544;-75
2023/09/03 09:25:26;;;;;;;9.52;5.40;;;;;;;26.77;35.56;95073.72;4168967;28;20041;-75
2023/09/03 09:27:27;;;;;;;;;;;;;;;26.58;35.42;95074.31;4180630;28;20076;-73
2023/09/03 09:29:29;;;;;;;7.72;5.40;;;;;;;26.81;35.65;95066.00;4179574;28;19928;-75
2023/09/03 09:31:33;;;;;;;5.30;4.80;;;;;;;27.13;35.43;95066.06;4194818;28;20052;-74